Terminal Aerodrome Forecast
Issued by NWS

Home | Current Version | Previous Version | Text Only | Print | Product List | Glossary On
Versions: 1 2 3 4 5 6 7 8 9 10 11 12 13 14 15 16 17 18 19 20 21
000
FTUS43 KAPX 271931 AAA
TAFTVC
TAF AMD
KTVC 271931Z 2720/2818 02005KT P6SM OVC008
     FM272200 32005KT 5SM BR OVC005
     FM281200 02004KT P6SM BKN003
     FM281400 02005KT P6SM SCT010=

USA.gov is the U.S. government's official web portal to all federal, state and local government web resources and services.